Time;durP1;ratioP1;P1;durP2;ratioP2;P2;SDS_P1;SDS_P2;PMS_P1;PMS_P2;Temp;Humidity;BMP_temperature;BMP_pressure;BME280_temperature;BME280_humidity;BME280_pressure;Samples;Min_cycle;Max_cycle;Signal;HPM_P1;HPM_P2
2023/07/22 00:29:44;;;;;;;2.83;2.30;;;;;;;15.66;64.54;96657.41;5037296;22;20101;-78
2023/07/22 00:32:11;;;;;;;3.55;2.17;;;;;;;15.74;64.96;96649.28;5075231;28;20049;-78
2023/07/22 00:34:39;;;;;;;3.28;2.90;;;;;;;15.80;67.26;96653.69;5076120;28;20044;-78
2023/07/22 00:37:07;;;;;;;3.20;2.42;;;;;;;15.84;66.58;96654.88;5075876;28;20048;-78
2023/07/22 00:39:35;;;;;;;2.45;2.17;;;;;;;15.86;65.74;96652.84;5075563;28;20048;-79
2023/07/22 00:42:02;;;;;;;3.10;2.20;;;;;;;15.84;65.13;96659.31;5075333;28;20056;-78
2023/07/22 00:44:30;;;;;;;2.88;2.63;;;;;;;15.84;67.16;96660.13;5075806;28;20478;-79
2023/07/22 00:46:59;;;;;;;3.72;3.03;;;;;;;15.96;70.42;96654.16;5075717;28;20052;-79
2023/07/22 00:49:28;;;;;;;2.97;2.35;;;;;;;16.00;67.04;96652.72;5075389;28;20549;-78
2023/07/22 00:51:58;;;;;;;3.72;2.33;;;;;;;15.96;65.67;96654.16;5085269;28;20066;-79
2023/07/22 00:54:26;;;;;;;3.13;1.90;;;;;;;15.84;64.87;96648.81;5084778;28;20053;-78
2023/07/22 00:56:55;;;;;;;2.20;1.83;;;;;;;15.69;64.89;96643.03;5075477;28;20504;-79
2023/07/22 00:59:23;;;;;;;3.13;1.77;;;;;;;15.59;64.83;96646.09;5076481;28;20052;-79
2023/07/22 01:01:50;;;;;;;3.55;1.73;;;;;;;15.50;65.09;96648.19;5075280;28;20114;-78
2023/07/22 01:04:22;;;;;;;2.20;2.00;;;;;;;15.41;65.15;96645.03;5077464;28;20053;-78
2023/07/22 01:06:50;;;;;;;2.53;2.25;;;;;;;15.32;65.00;96645.47;5076290;28;20098;-79
2023/07/22 01:09:18;;;;;;;4.47;2.33;;;;;;;15.23;65.16;96637.81;5074952;28;20292;-78
2023/07/22 01:11:45;;;;;;;3.17;2.30;;;;;;;15.15;65.49;96637.25;5075207;28;20079;-78
2023/07/22 01:14:13;;;;;;;2.13;1.90;;;;;;;15.09;65.43;96641.53;5085435;28;20050;-78
2023/07/22 01:16:40;;;;;;;4.32;2.58;;;;;;;15.10;66.29;96635.25;5085500;28;20527;-79
2023/07/22 01:19:09;;;;;;;7.22;2.40;;;;;;;15.07;65.91;96634.88;5074894;28;20131;-78
2023/07/22 01:21:39;;;;;;;2.60;2.20;;;;;;;15.00;65.83;96629.66;5075678;28;20084;-78
2023/07/22 01:24:08;;;;;;;4.00;2.20;;;;;;;14.91;65.76;96634.34;5075679;28;20052;-78
2023/07/22 01:26:36;;;;;;;3.30;2.63;;;;;;;14.86;65.98;96638.59;5075010;28;20044;-78
2023/07/22 01:29:05;;;;;;;2.67;2.10;;;;;;;14.81;66.56;96637.41;5074355;28;20053;-78
2023/07/22 01:31:35;;;;;;;2.65;2.15;;;;;;;14.81;66.71;96640.03;5075677;28;20053;-78
2023/07/22 01:34:03;;;;;;;3.05;2.60;;;;;;;14.81;66.50;96634.75;5074485;28;20534;-78
2023/07/22 01:36:32;;;;;;;2.70;2.20;;;;;;;14.76;66.19;96631.97;5074006;28;20045;-79
2023/07/22 01:39:00;;;;;;;2.33;2.10;;;;;;;14.68;66.29;96626.13;5076093;28;20484;-78
2023/07/22 01:41:29;;;;;;;3.80;2.53;;;;;;;14.60;66.65;96625.31;5074708;28;20106;-78
2023/07/22 01:43:57;;;;;;;2.47;2.17;;;;;;;14.56;66.69;96623.31;5074879;28;20052;-78
2023/07/22 01:46:24;;;;;;;3.08;2.22;;;;;;;14.50;67.11;96621.50;5075608;28;20108;-78
2023/07/22 01:48:52;;;;;;;4.38;2.53;;;;;;;14.45;67.19;96631.81;5074469;28;20041;-78
2023/07/22 01:51:20;;;;;;;2.58;2.08;;;;;;;14.40;67.13;96624.53;5074535;28;20052;-78
2023/07/22 01:53:47;;;;;;;3.33;2.10;;;;;;;14.36;67.56;96626.75;5074724;28;20467;-78
2023/07/22 01:56:16;;;;;;;2.22;2.03;;;;;;;14.35;67.88;96627.00;5074333;28;20048;-78
2023/07/22 01:58:45;;;;;;;2.83;2.13;;;;;;;14.35;67.88;96627.78;5074656;28;20048;-78
2023/07/22 02:01:13;;;;;;;2.17;1.98;;;;;;;14.32;67.74;96625.59;5073986;28;20109;-78
2023/07/22 02:03:41;;;;;;;2.33;1.95;;;;;;;14.31;67.97;96618.72;5074280;28;20122;-79
2023/07/22 02:06:09;;;;;;;1.85;1.73;;;;;;;14.31;68.01;96629.22;5074197;28;20048;-78
2023/07/22 02:08:37;;;;;;;3.63;2.42;;;;;;;14.30;68.07;96622.34;5076282;28;20079;-78
2023/07/22 02:11:07;;;;;;;2.13;1.88;;;;;;;14.30;68.16;96626.78;5075444;28;20056;-78
2023/07/22 02:13:35;;;;;;;4.72;2.20;;;;;;;14.29;68.66;96625.19;5076066;28;20106;-78
2023/07/22 02:16:04;;;;;;;3.47;2.40;;;;;;;14.29;68.64;96628.59;5074510;28;20052;-78
2023/07/22 02:18:32;;;;;;;3.22;2.00;;;;;;;14.30;68.66;96632.84;5088966;28;20044;-78
2023/07/22 02:21:00;;;;;;;2.40;2.10;;;;;;;14.35;68.58;96627.78;5092803;28;20049;-79
2023/07/22 02:23:28;;;;;;;1.80;1.52;;;;;;;14.37;68.66;96632.84;5090584;28;20125;-79
2023/07/22 02:25:55;;;;;;;2.08;1.77;;;;;;;14.38;68.30;96630.00;5089664;28;20052;-78
2023/07/22 02:28:24;;;;;;;4.75;2.03;;;;;;;14.42;68.55;96625.16;5092489;28;20044;-78
2023/07/22 02:30:53;;;;;;;2.25;1.80;;;;;;;14.46;68.54;96628.97;5089026;28;20079;-78
2023/07/22 02:33:22;;;;;;;3.13;2.00;;;;;;;14.46;68.39;96615.84;5079617;28;20102;-79
2023/07/22 02:35:50;;;;;;;2.03;1.83;;;;;;;14.40;68.24;96606.97;5074585;28;20053;-78
2023/07/22 02:38:18;;;;;;;3.95;2.55;;;;;;;14.38;68.69;96621.31;5074473;28;20049;-78
2023/07/22 02:40:45;;;;;;;3.10;2.15;;;;;;;14.34;68.80;96613.06;5074400;28;20412;-78
2023/07/22 02:43:13;;;;;;;5.05;2.05;;;;;;;14.30;69.01;96616.28;5074132;28;20083;-78
2023/07/22 02:45:41;;;;;;;6.90;3.42;;;;;;;14.30;69.64;96624.97;5073576;28;20049;-78
2023/07/22 02:48:09;;;;;;;4.28;2.35;;;;;;;14.33;69.30;96621.13;5073997;28;20048;-79
2023/07/22 02:50:38;;;;;;;2.15;1.88;;;;;;;14.35;69.17;96632.25;5073644;28;20046;-79
2023/07/22 02:53:05;;;;;;;2.72;2.20;;;;;;;14.39;68.95;96633.44;5073883;28;20581;-78
2023/07/22 02:55:33;;;;;;;4.45;2.42;;;;;;;14.41;68.62;96628.81;5073140;28;20059;-78
2023/07/22 02:58:01;;;;;;;2.85;1.95;;;;;;;14.44;68.41;96636.25;5073918;28;20071;-79
2023/07/22 03:00:28;;;;;;;3.15;2.72;;;;;;;14.50;69.56;96639.88;5074017;28;20098;-78
2023/07/22 03:03:00;;;;;;;2.28;2.03;;;;;;;14.56;68.51;96644.31;5073423;28;20079;-78
2023/07/22 03:05:29;;;;;;;;;;;;;;;14.57;68.75;96645.94;5074421;28;20097;-78
2023/07/22 03:07:59;;;;;;;2.35;2.15;;;;;;;14.60;68.32;96642.91;5072868;28;19928;-78
2023/07/22 03:10:27;;;;;;;3.33;2.65;;;;;;;14.64;68.45;96649.34;5072767;28;20538;-78
2023/07/22 03:12:56;;;;;;;3.58;2.35;;;;;;;14.64;68.32;96649.34;5072900;28;20503;-78
2023/07/22 03:15:25;;;;;;;3.53;3.08;;;;;;;14.66;68.67;96652.59;5073407;28;20048;-79
2023/07/22 03:17:55;;;;;;;2.55;2.35;;;;;;;14.70;68.75;96653.78;5072809;28;20477;-78
2023/07/22 03:20:24;;;;;;;3.53;2.33;;;;;;;14.72;68.62;96646.50;5072790;28;20102;-78
2023/07/22 03:22:54;;;;;;;3.70;3.00;;;;;;;14.79;70.17;96649.91;5073122;28;20058;-78
2023/07/22 03:25:23;;;;;;;2.30;2.10;;;;;;;14.87;67.99;96653.31;5083472;28;20040;-79
2023/07/22 03:27:52;;;;;;;3.15;2.10;;;;;;;14.82;67.58;96657.41;5081062;28;20131;-78
2023/07/22 03:30:19;;;;;;;2.70;2.10;;;;;;;14.74;67.52;96655.00;5072835;28;20044;-78
2023/07/22 03:32:50;;;;;;;2.20;1.83;;;;;;;14.66;67.70;96657.84;5077500;28;20052;-79
2023/07/22 03:35:17;;;;;;;2.38;1.73;;;;;;;14.56;67.91;96652.19;5075185;28;20558;-78
2023/07/22 03:37:46;;;;;;;4.68;2.20;;;;;;;14.45;68.16;96650.19;5073577;28;20052;-78
2023/07/22 03:40:19;;;;;;;2.22;1.80;;;;;;;14.34;68.35;96644.56;5073387;28;20044;-78
2023/07/22 03:42:49;;;;;;;4.68;2.13;;;;;;;14.26;69.09;96652.63;5073284;28;20131;-79
2023/07/22 03:45:17;;;;;;;3.50;3.05;;;;;;;14.30;70.19;96647.78;5072913;28;20078;-79
2023/07/22 03:47:45;;;;;;;2.58;2.10;;;;;;;14.32;69.19;96643.97;5072927;28;20052;-78
2023/07/22 03:50:13;;;;;;;3.72;2.38;;;;;;;14.31;68.94;96644.94;5073106;28;20076;-78
2023/07/22 03:52:41;;;;;;;5.63;2.80;;;;;;;14.35;69.74;96651.41;5072927;28;20481;-79
2023/07/22 03:55:09;;;;;;;2.75;1.80;;;;;;;14.37;69.02;96644.13;5072840;28;20135;-78
2023/07/22 03:57:37;;;;;;;2.08;1.88;;;;;;;14.32;68.88;96643.13;5071593;28;20084;-79
2023/07/22 04:00:09;;;;;;;2.78;1.60;;;;;;;14.27;68.90;96642.94;5071994;28;20135;-78
2023/07/22 04:02:37;;;;;;;3.58;3.10;;;;;;;14.29;69.88;96646.97;5073012;28;20052;-78
2023/07/22 04:05:05;;;;;;;3.58;3.00;;;;;;;14.38;71.48;96635.25;5072689;28;20049;-77
2023/07/22 04:07:33;;;;;;;3.63;3.03;;;;;;;14.53;70.59;96642.09;5071815;28;20049;-77
2023/07/22 04:10:01;;;;;;;3.03;2.47;;;;;;;14.63;70.10;96642.50;5072465;28;20048;-77
2023/07/22 04:12:29;;;;;;;3.97;2.92;;;;;;;14.73;69.50;96650.75;5071996;28;20052;-78
2023/07/22 04:14:56;;;;;;;2.70;2.50;;;;;;;14.78;68.91;96645.69;5071774;28;20044;-77
2023/07/22 04:17:25;;;;;;;2.45;1.85;;;;;;;14.76;67.51;96645.09;5072094;28;20052;-78
2023/07/22 04:19:53;;;;;;;4.38;3.40;;;;;;;14.69;67.93;96649.53;5071765;28;20121;-78
2023/07/22 04:22:21;;;;;;;2.95;2.13;;;;;;;14.60;67.47;96648.16;5071810;28;20052;-77
2023/07/22 04:24:49;;;;;;;3.45;1.48;;;;;;;14.48;67.69;96639.28;5071827;28;20114;-77
2023/07/22 04:27:17;;;;;;;2.67;2.20;;;;;;;14.39;67.85;96638.69;5071519;28;20049;-77
2023/07/22 04:29:44;;;;;;;2.80;2.08;;;;;;;14.32;68.10;96635.25;5071423;28;20044;-77
2023/07/22 04:32:12;;;;;;;3.17;1.73;;;;;;;14.26;68.27;96636.91;5071565;28;20500;-78
2023/07/22 04:34:42;;;;;;;2.47;1.70;;;;;;;14.18;68.52;96637.09;5071777;28;20060;-77
2023/07/22 04:37:09;;;;;;;2.40;2.20;;;;;;;14.18;68.62;96629.22;5072121;28;20129;-77
2023/07/22 04:39:37;;;;;;;4.38;3.08;;;;;;;14.25;69.05;96629.22;5071483;28;20080;-77
2023/07/22 04:42:05;;;;;;;2.67;2.25;;;;;;;14.35;68.65;96627.00;5071283;28;20053;-78
2023/07/22 04:44:33;;;;;;;4.03;2.58;;;;;;;14.35;68.32;96625.16;5071705;28;20102;-77
2023/07/22 04:47:00;;;;;;;2.58;2.28;;;;;;;14.40;68.25;96633.22;5071588;28;20117;-77
2023/07/22 04:49:28;;;;;;;3.55;2.38;;;;;;;14.39;68.07;96636.88;5071534;28;20044;-78
2023/07/22 04:51:57;;;;;;;4.50;2.17;;;;;;;14.39;68.38;96630.81;5071536;28;20048;-78
2023/07/22 04:54:28;;;;;;;3.50;2.42;;;;;;;14.37;68.27;96630.22;5071645;28;20052;-77
2023/07/22 04:56:55;;;;;;;2.90;2.60;;;;;;;14.38;68.66;96634.44;5071759;28;20048;-77
2023/07/22 04:59:23;;;;;;;3.55;2.67;;;;;;;14.47;69.77;96632.41;5071775;28;20544;-78
2023/07/22 05:01:51;;;;;;;4.00;3.10;;;;;;;14.60;71.09;96635.03;5074900;28;20123;-79
2023/07/22 05:04:19;;;;;;;5.95;2.35;;;;;;;14.70;69.08;96638.03;5073314;28;20052;-78
2023/07/22 05:06:47;;;;;;;3.30;2.85;;;;;;;14.77;69.61;96638.03;5066705;28;20543;-78
2023/07/22 05:09:15;;;;;;;3.25;1.95;;;;;;;14.86;67.97;96641.22;5065860;28;20048;-77
2023/07/22 05:11:43;;;;;;;3.58;2.47;;;;;;;14.84;67.71;96651.91;5075941;28;20040;-78
2023/07/22 05:14:11;;;;;;;4.63;1.80;;;;;;;14.82;67.33;96643.44;5077327;28;20061;-77
2023/07/22 05:16:38;;;;;;;2.40;2.15;;;;;;;14.81;67.21;96642.66;5067762;28;20061;-78
2023/07/22 05:19:08;;;;;;;2.45;1.92;;;;;;;14.78;67.13;96648.31;5085147;28;20044;-78
2023/07/22 05:21:35;;;;;;;3.10;2.28;;;;;;;14.77;67.31;96653.78;5087880;28;20123;-78
2023/07/22 05:24:03;;;;;;;4.60;2.28;;;;;;;14.77;67.35;96654.56;5075038;28;20057;-78
2023/07/22 05:26:32;;;;;;;2.90;2.25;;;;;;;14.81;67.48;96660.22;5079779;28;20054;-77
2023/07/22 05:29:00;;;;;;;3.45;3.08;;;;;;;14.94;69.01;96662.00;5084305;28;20047;-79
2023/07/22 05:31:28;;;;;;;3.45;2.17;;;;;;;15.06;67.77;96665.59;5094573;28;20052;-79
2023/07/22 05:33:55;;;;;;;2.17;1.88;;;;;;;15.13;67.21;96668.19;5094550;28;20157;-78
2023/07/22 05:36:23;;;;;;;2.70;1.83;;;;;;;15.16;66.99;96662.53;5093711;28;20077;-78
2023/07/22 05:38:50;;;;;;;2.90;2.22;;;;;;;15.20;67.13;96661.91;5094115;28;20530;-78
2023/07/22 05:41:18;;;;;;;4.38;2.50;;;;;;;15.28;67.33;96670.53;5094828;28;20123;-77
2023/07/22 05:43:47;;;;;;;3.30;2.88;;;;;;;15.36;67.47;96667.69;5095367;28;20048;-78
2023/07/22 05:46:15;;;;;;;3.75;2.10;;;;;;;15.42;66.94;96661.59;5095577;28;20044;-79
2023/07/22 05:48:42;;;;;;;3.67;2.75;;;;;;;15.49;66.93;96667.59;5094295;28;20123;-79
2023/07/22 05:51:10;;;;;;;4.18;2.50;;;;;;;15.56;66.44;96678.88;5096168;28;20044;-78
2023/07/22 05:53:38;;;;;;;2.00;1.58;;;;;;;15.62;66.21;96683.31;5096458;28;20525;-79
2023/07/22 05:56:06;;;;;;;3.83;2.10;;;;;;;15.68;66.09;96680.84;5095687;28;20131;-79
2023/07/22 05:58:34;;;;;;;3.15;1.92;;;;;;;15.71;65.76;96681.25;5100243;28;20078;-78
2023/07/22 06:01:03;;;;;;;2.95;1.65;;;;;;;15.76;65.76;96683.25;5109300;28;20048;-79
2023/07/22 06:03:30;;;;;;;2.90;1.50;;;;;;;15.82;65.49;96687.66;5115733;28;20048;-78
2023/07/22 06:05:58;;;;;;;2.30;1.90;;;;;;;15.88;65.47;96691.28;5116817;28;20048;-79
2023/07/22 06:08:26;;;;;;;3.65;2.10;;;;;;;15.93;65.18;96689.63;5099490;28;20056;-79
2023/07/22 06:10:54;;;;;;;1.85;1.65;;;;;;;15.99;65.03;96682.69;5095802;28;20037;-79
2023/07/22 06:13:22;;;;;;;2.00;1.58;;;;;;;16.06;64.77;96689.50;5098139;28;20044;-78
2023/07/22 06:15:49;;;;;;;2.45;1.60;;;;;;;16.13;64.75;96693.91;5096803;28;20052;-79
2023/07/22 06:18:18;;;;;;;1.85;1.67;;;;;;;16.23;64.97;96694.25;5093224;28;20078;-79
2023/07/22 06:20:46;;;;;;;4.25;2.75;;;;;;;16.37;66.61;96689.69;5091358;28;20075;-79
2023/07/22 06:23:15;;;;;;;2.35;1.95;;;;;;;16.50;66.21;96694.03;5091948;28;20075;-78
2023/07/22 06:25:43;;;;;;;4.57;2.53;;;;;;;16.59;64.41;96700.63;5111105;28;20086;-79
2023/07/22 06:30:59;;;;;;;3.63;1.70;;;;;;;16.73;63.74;96696.84;5114303;28;20047;-80
2023/07/22 06:34:03;;;;;;;2.90;1.48;;;;;;;16.82;63.43;96708.72;5116454;28;20052;-81
2023/07/22 06:36:38;;;;;;;1.77;1.60;;;;;;;16.88;62.99;96704.44;5106119;28;20061;-81
2023/07/22 07:00:58;;;;;;;1.90;1.50;;;;;;;17.98;60.62;96716.66;5134571;28;20066;-79
2023/07/22 07:03:34;;;;;;;2.83;1.75;;;;;;;18.06;59.11;96711.06;5107600;28;20031;-81
2023/07/22 07:12:24;;;;;;;2.70;2.25;;;;;;;18.43;58.26;96713.53;5110521;28;20044;-80
2023/07/22 07:14:55;;;;;;;2.15;1.85;;;;;;;18.52;56.69;96712.13;5107721;28;20045;-80
2023/07/22 07:17:24;;;;;;;5.60;2.00;;;;;;;18.63;56.75;96712.34;5119089;28;20058;-81
2023/07/22 07:19:53;;;;;;;2.20;1.88;;;;;;;18.73;56.79;96708.09;5099559;28;20040;-80
2023/07/22 07:22:22;;;;;;;2.60;2.10;;;;;;;18.87;56.20;96724.56;5123638;28;20074;-81
2023/07/22 07:24:52;;;;;;;2.72;2.20;;;;;;;18.98;56.55;96714.19;5143674;28;20055;-80
2023/07/22 07:27:21;;;;;;;18.48;11.32;;;;;;;19.08;56.84;96725.00;5146218;28;20042;-80
2023/07/22 07:29:51;;;;;;;36.85;26.42;;;;;;;19.14;55.97;96721.44;5133595;28;20552;-80
2023/07/22 07:32:24;;;;;;;6.05;3.17;;;;;;;19.23;54.32;96729.81;5125729;28;20093;-80
2023/07/22 07:34:55;;;;;;;18.30;14.30;;;;;;;19.30;55.26;96723.31;5120380;28;20047;-80
2023/07/22 07:37:30;;;;;;;4.85;3.33;;;;;;;19.39;54.47;96722.97;5135200;28;20051;-80
2023/07/22 07:40:10;;;;;;;3.45;2.83;;;;;;;19.47;54.65;96720.75;5143622;28;20076;-81
2023/07/22 07:42:59;;;;;;;3.35;1.83;;;;;;;19.59;53.57;96722.56;5134322;28;20047;-79
2023/07/22 07:45:51;;;;;;;3.60;2.17;;;;;;;19.69;53.47;96718.28;5140754;28;20439;-79
2023/07/22 07:48:36;;;;;;;4.45;1.58;;;;;;;19.79;51.59;96724.81;5135767;28;20055;-80
2023/07/22 07:51:10;;;;;;;3.78;2.03;;;;;;;19.85;52.61;96723.84;5141333;28;20047;-80
2023/07/22 07:53:40;;;;;;;2.97;1.92;;;;;;;19.94;52.57;96714.47;5119785;28;20066;-79
2023/07/22 07:56:12;;;;;;;3.03;2.47;;;;;;;20.04;53.90;96712.00;5127018;27;20047;-81
2023/07/22 07:58:51;;;;;;;10.10;5.82;;;;;;;20.16;52.78;96709.31;5137577;27;20040;-81
2023/07/22 08:01:29;;;;;;;2.83;1.80;;;;;;;20.24;52.19;96724.78;5130065;28;20103;-80
2023/07/22 08:04:13;;;;;;;3.08;1.52;;;;;;;20.34;51.74;96721.53;5126879;28;20078;-80
2023/07/22 08:06:55;;;;;;;3.78;2.20;;;;;;;20.41;51.56;96714.19;5129795;28;20087;-79
2023/07/22 08:09:39;;;;;;;3.33;2.33;;;;;;;20.52;51.31;96715.16;5121142;28;20036;-80
2023/07/22 08:12:24;;;;;;;2.45;1.70;;;;;;;20.63;51.89;96716.16;5132163;28;20052;-78
2023/07/22 08:15:06;;;;;;;2.50;2.30;;;;;;;20.74;51.55;96717.91;5128454;28;20032;-80
2023/07/22 08:18:01;;;;;;;3.22;2.33;;;;;;;20.85;50.18;96716.19;5121044;28;20074;-80
2023/07/22 08:20:59;;;;;;;3.60;1.85;;;;;;;20.92;50.41;96712.31;5138520;28;20039;-81
2023/07/22 08:23:49;;;;;;;2.25;1.77;;;;;;;20.98;49.63;96711.34;5097175;28;20048;-80
2023/07/22 08:26:39;;;;;;;2.67;1.30;;;;;;;21.11;49.15;96704.06;5097964;28;20055;-81
2023/07/22 08:29:28;;;;;;;2.53;1.23;;;;;;;21.24;48.23;96708.22;5129534;28;20053;-81
2023/07/22 08:40:38;;;;;;;31.67;5.20;;;;;;;21.68;47.89;96709.00;5423735;22;20054;-73
2023/07/22 08:43:07;;;;;;;2.85;2.22;;;;;;;22.00;45.80;96705.59;5013588;28;20112;-77
2023/07/22 08:45:37;;;;;;;2.72;1.58;;;;;;;22.23;44.04;96709.78;5013409;28;20123;-76
2023/07/22 08:48:07;;;;;;;3.03;1.70;;;;;;;22.24;43.22;96706.09;5008670;28;20056;-76
2023/07/22 08:50:42;;;;;;;2.00;1.45;;;;;;;22.29;42.92;96694.69;5009012;28;20053;-77
2023/07/22 08:53:11;;;;;;;2.28;1.50;;;;;;;22.35;43.07;96706.97;5013407;28;20583;-76
2023/07/22 08:55:40;;;;;;;1.88;1.45;;;;;;;22.38;42.35;96706.47;4994556;28;20050;-77
2023/07/22 08:58:10;;;;;;;2.88;2.58;;;;;;;22.39;40.38;96700.91;5006019;28;20115;-77
2023/07/22 09:00:39;;;;;;;17.17;13.07;;;;;;;22.39;42.10;96708.88;5013063;28;20485;-76
2023/07/22 09:03:07;;;;;;;5.40;3.28;;;;;;;22.41;41.22;96701.44;5005701;28;20043;-76
2023/07/22 09:05:37;;;;;;;5.25;2.55;;;;;;;22.48;42.40;96695.09;4992543;28;20054;-75
2023/07/22 09:08:07;;;;;;;9.93;5.63;;;;;;;22.59;42.02;96702.88;5003190;28;20132;-75
2023/07/22 09:10:35;;;;;;;3.00;2.70;;;;;;;22.70;41.08;96703.75;5003138;28;20085;-75
2023/07/22 09:13:04;;;;;;;8.23;6.10;;;;;;;22.70;39.99;96698.44;5002834;28;20101;-75
2023/07/22 09:15:35;;;;;;;6.38;5.20;;;;;;;22.77;41.11;96700.88;4993071;28;20127;-75
2023/07/22 09:18:43;;;;;;;2.45;2.03;;;;;;;22.87;40.68;96703.59;4994348;28;20054;-82
2023/07/22 09:21:27;;;;;;;2.15;1.90;;;;;;;22.96;40.46;96696.72;5028942;23;20042;-82
2023/07/22 09:24:00;;;;;;;2.35;1.33;;;;;;;23.06;39.84;96701.31;4985811;28;20085;-81
2023/07/22 09:26:27;;;;;;;2.03;1.38;;;;;;;23.09;39.83;96689.34;5016223;28;20074;-80
2023/07/22 09:28:58;;;;;;;2.53;1.20;;;;;;;23.15;39.36;96698.97;5010258;28;20054;-81
2023/07/22 09:31:28;;;;;;;1.40;1.30;;;;;;;23.21;39.24;96693.41;4994464;28;20042;-79
2023/07/22 09:33:55;;;;;;;1.83;1.50;;;;;;;23.29;38.98;96700.09;5007892;28;20039;-80
2023/07/22 09:36:23;;;;;;;3.15;1.50;;;;;;;23.34;38.94;96696.66;5001234;28;20058;-80
2023/07/22 09:39:02;;;;;;;1.83;1.38;;;;;;;23.39;38.49;96694.78;4997143;28;20469;-80
2023/07/22 09:41:30;;;;;;;1.92;1.48;;;;;;;23.44;38.62;96694.81;4989546;28;20491;-80
2023/07/22 09:44:02;;;;;;;3.17;1.70;;;;;;;23.49;38.07;96694.03;5002650;28;20073;-78
2023/07/22 09:46:33;;;;;;;3.15;1.55;;;;;;;23.56;37.58;96691.13;4985595;28;20334;-80
2023/07/22 09:49:05;;;;;;;1.50;1.40;;;;;;;23.64;37.65;96698.59;5006446;28;20049;-80
2023/07/22 09:51:35;;;;;;;1.45;1.35;;;;;;;23.73;37.11;96699.69;4995335;28;20050;-81
2023/07/22 09:54:20;;;;;;;1.98;1.48;;;;;;;23.81;37.52;96693.88;4995165;28;20079;-81
2023/07/22 09:56:57;;;;;;;2.13;1.88;;;;;;;23.89;36.57;96687.22;5152507;22;20037;-82
2023/07/22 10:05:43;;;;;;;1.60;1.50;;;;;;;24.15;36.34;96679.25;4998015;28;20062;-80
2023/07/22 10:08:57;;;;;;;2.05;1.83;;;;;;;24.19;36.07;96675.78;4998337;28;20031;-81
2023/07/22 10:15:35;;;;;;;2.40;1.30;;;;;;;24.29;35.00;96679.50;5000165;28;20114;-82
2023/07/22 10:31:05;;;;;;;2.65;1.80;;;;;;;24.64;33.55;96671.50;5129834;23;20050;-79
2023/07/22 10:33:36;;;;;;;2.15;1.95;;;;;;;24.72;33.41;96674.66;5034763;28;20081;-81
2023/07/22 10:36:13;;;;;;;1.67;1.55;;;;;;;24.80;33.42;96660.78;5019665;28;20053;-82
2023/07/22 10:38:42;;;;;;;2.78;1.27;;;;;;;24.90;33.85;96663.41;5012861;28;20399;-81
2023/07/22 10:41:16;;;;;;;1.38;1.27;;;;;;;25.04;33.50;96664.44;4999545;28;20058;-81
2023/07/22 10:43:55;;;;;;;2.70;1.75;;;;;;;25.16;33.02;96660.66;4999812;28;20100;-81
2023/07/22 10:46:33;;;;;;;2.03;1.58;;;;;;;25.23;31.40;96667.31;5033601;23;20031;-80
2023/07/22 10:49:12;;;;;;;2.60;1.23;;;;;;;25.32;31.35;96659.53;4996375;28;20034;-78
2023/07/22 10:51:40;;;;;;;8.77;1.20;;;;;;;25.48;31.96;96652.25;4995978;28;20038;-80
2023/07/22 10:54:14;;;;;;;2.05;1.83;;;;;;;25.55;30.67;96614.53;4997266;28;20087;-79
2023/07/22 10:56:43;;;;;;;1.35;1.25;;;;;;;25.48;31.61;96658.38;4998371;28;20065;-81
2023/07/22 10:59:11;;;;;;;1.88;1.20;;;;;;;25.45;31.43;96653.59;4998551;28;20031;-82
2023/07/22 11:01:40;;;;;;;3.42;1.30;;;;;;;25.43;30.88;96650.41;4998662;28;20034;-81
2023/07/22 11:04:13;;;;;;;1.67;1.52;;;;;;;25.38;30.37;96646.94;4998390;28;20039;-82
2023/07/22 11:06:55;;;;;;;3.60;1.90;;;;;;;25.35;31.29;96653.66;4998622;28;20041;-83
2023/07/22 11:09:44;;;;;;;1.73;1.48;;;;;;;25.37;30.99;96645.38;4998330;28;20034;-81
2023/07/22 11:12:18;;;;;;;1.80;1.48;;;;;;;25.32;31.02;96638.19;4998275;28;20110;-82
2023/07/22 11:14:47;;;;;;;2.22;1.67;;;;;;;25.28;31.11;96642.47;4997969;28;20038;-81
2023/07/22 11:17:16;;;;;;;4.00;1.85;;;;;;;25.26;31.84;96645.41;4998598;28;20038;-83
2023/07/22 11:19:49;;;;;;;2.10;1.52;;;;;;;25.20;31.70;96641.16;4998631;28;20062;-82
2023/07/22 11:22:17;;;;;;;;;;;;;;;25.15;32.75;96632.38;4982266;28;20054;-78
2023/07/22 11:24:46;;;;;;;3.13;1.70;;;;;;;25.13;31.78;96629.19;4986990;28;19981;-82
2023/07/22 11:27:15;;;;;;;2.40;1.63;;;;;;;25.15;31.41;96619.81;4997886;28;20054;-82
2023/07/22 11:29:42;;;;;;;2.25;1.63;;;;;;;25.20;31.19;96606.47;4997960;28;20062;-81
2023/07/22 11:32:16;;;;;;;2.50;1.77;;;;;;;25.22;30.94;96611.53;4998109;28;20042;-82
2023/07/22 11:34:45;;;;;;;4.35;2.13;;;;;;;25.28;32.12;96613.09;4998190;28;20074;-82
2023/07/22 11:37:14;;;;;;;4.03;1.65;;;;;;;25.32;31.06;96610.66;4998212;28;20086;-81
2023/07/22 11:39:43;;;;;;;3.80;2.05;;;;;;;25.33;31.41;96605.06;5000952;28;20066;-82
2023/07/22 11:42:13;;;;;;;3.00;1.40;;;;;;;25.36;31.45;96607.16;5001576;28;20090;-81
2023/07/22 11:44:41;;;;;;;7.97;2.75;;;;;;;25.43;32.02;96613.03;5001881;28;20035;-82
2023/07/22 11:47:09;;;;;;;3.38;1.88;;;;;;;25.47;31.24;96602.56;5001475;28;20039;-82
2023/07/22 11:49:38;;;;;;;2.47;1.17;;;;;;;25.52;30.75;96599.06;5001445;28;20062;-83
2023/07/22 11:52:08;;;;;;;3.30;1.70;;;;;;;25.58;31.00;96595.28;5001299;28;20056;-82
2023/07/22 11:54:37;;;;;;;2.85;1.48;;;;;;;25.62;31.23;96597.13;5000868;28;20042;-82
2023/07/22 11:57:13;;;;;;;2.97;1.50;;;;;;;25.65;30.89;96585.09;4986483;28;20051;-75
2023/07/22 11:59:45;;;;;;;2.83;1.80;;;;;;;25.68;31.14;96582.66;4976356;28;20054;-76
2023/07/22 12:02:17;;;;;;;3.33;1.98;;;;;;;25.66;31.02;96579.47;4976283;28;20498;-76
2023/07/22 12:04:53;;;;;;;2.28;0.98;;;;;;;25.62;31.81;96580.28;4976365;28;20050;-76
2023/07/22 12:07:25;;;;;;;2.42;1.70;;;;;;;25.58;32.43;96572.06;4975870;28;20085;-76
2023/07/22 12:09:55;;;;;;;2.15;1.70;;;;;;;25.58;31.99;96560.56;4959996;28;20497;-76
2023/07/22 12:12:33;;;;;;;2.03;1.48;;;;;;;25.57;34.06;96564.31;4975920;28;20420;-76
2023/07/22 12:15:13;;;;;;;2.13;1.42;;;;;;;25.58;33.02;96563.22;4975660;28;20058;-75
2023/07/22 12:17:48;;;;;;;1.75;1.15;;;;;;;25.62;32.59;96569.63;4962137;28;20102;-76
2023/07/22 12:20:16;;;;;;;2.35;1.50;;;;;;;25.60;32.04;96563.75;4956298;29;20059;-75
2023/07/22 12:22:44;;;;;;;2.53;1.67;;;;;;;25.53;33.28;96568.63;4956723;28;20106;-76
2023/07/22 12:25:12;;;;;;;1.55;1.40;;;;;;;25.47;33.13;96570.50;4955913;28;20062;-76
2023/07/22 12:27:41;;;;;;;2.03;1.40;;;;;;;25.45;31.88;96552.13;4970692;28;20057;-75
2023/07/22 12:30:09;;;;;;;1.95;1.40;;;;;;;25.48;32.27;96553.44;4975346;28;20055;-76
2023/07/22 12:32:38;;;;;;;1.38;1.27;;;;;;;25.46;31.83;96548.38;4972918;28;20054;-76
2023/07/22 12:35:07;;;;;;;1.80;1.33;;;;;;;25.43;31.71;96551.59;4956309;29;20047;-75
2023/07/22 12:37:35;;;;;;;2.05;1.48;;;;;;;25.43;32.12;96559.59;4956063;29;20446;-75
2023/07/22 12:40:07;;;;;;;2.08;1.20;;;;;;;25.38;32.54;96540.94;4955342;28;20063;-75
2023/07/22 12:42:35;;;;;;;1.80;1.67;;;;;;;25.34;32.05;96537.22;4969124;28;20058;-75
2023/07/22 12:45:05;;;;;;;4.25;1.63;;;;;;;25.35;32.00;96525.47;4981643;28;20495;-75
2023/07/22 12:47:39;;;;;;;2.22;1.77;;;;;;;25.40;32.65;96538.78;4985822;28;20039;-83
2023/07/22 12:50:08;;;;;;;1.40;1.25;;;;;;;25.42;32.39;96538.50;5006757;28;20066;-84
2023/07/22 12:52:36;;;;;;;4.88;1.98;;;;;;;25.41;31.72;96545.75;5019353;28;20105;-83
2023/07/22 12:55:04;;;;;;;2.42;1.50;;;;;;;25.38;31.67;96530.25;5011889;28;20063;-82
2023/07/22 12:57:32;;;;;;;1.85;1.08;;;;;;;25.34;32.02;96533.75;5007926;28;20034;-82
2023/07/22 13:00:00;;;;;;;3.00;1.27;;;;;;;25.30;32.07;96530.88;5001365;28;20062;-83
2023/07/22 13:02:29;;;;;;;1.25;1.10;;;;;;;25.29;32.15;96537.25;5016837;28;20030;-83
2023/07/22 13:04:57;;;;;;;1.35;0.88;;;;;;;25.33;32.86;96554.34;4994413;28;20039;-82
2023/07/22 13:07:24;;;;;;;1.75;1.63;;;;;;;25.38;32.30;96535.59;4999719;28;20042;-83
2023/07/22 13:09:56;;;;;;;4.10;1.80;;;;;;;25.37;32.04;96518.00;5008909;28;20072;-82
2023/07/22 13:12:25;;;;;;;1.92;1.27;;;;;;;25.37;32.60;96520.66;4994028;28;20031;-83
2023/07/22 13:14:53;;;;;;;2.78;1.00;;;;;;;25.44;32.71;96529.16;5018232;28;20038;-84
2023/07/22 13:17:21;;;;;;;1.23;1.13;;;;;;;25.50;32.85;96527.25;5017031;28;20050;-83
2023/07/22 13:19:50;;;;;;;2.10;1.42;;;;;;;25.54;32.59;96527.47;5005478;28;20073;-83
2023/07/22 13:22:18;;;;;;;2.15;1.33;;;;;;;25.56;32.07;96519.97;5004642;28;20037;-83